createdAt,value
2023-04-02T00:02:23.204Z,8.53
2023-04-02T00:05:16.815Z,8.56
2023-04-02T00:07:49.704Z,8.61
2023-04-02T00:10:35.057Z,8.59
2023-04-02T00:13:22.292Z,8.63
2023-04-02T00:15:57.408Z,8.65
2023-04-02T00:18:27.483Z,8.65
2023-04-02T00:21:22.056Z,8.60
2023-04-02T00:23:50.661Z,8.56
2023-04-02T00:26:33.202Z,8.57
2023-04-02T00:29:03.054Z,8.52
2023-04-02T00:31:32.621Z,8.51
2023-04-02T00:34:04.934Z,8.50
2023-04-02T00:36:34.654Z,8.46
2023-04-02T00:39:08.463Z,8.43
2023-04-02T00:41:38.898Z,8.43
2023-04-02T00:44:12.813Z,8.40
2023-04-02T00:46:47.396Z,8.33
2023-04-02T00:49:38.525Z,8.23
2023-04-02T00:52:14.559Z,8.18
2023-04-02T00:54:48.530Z,8.10
2023-04-02T00:57:21.912Z,8.03
2023-04-02T00:59:59.312Z,7.93
2023-04-02T01:02:33.806Z,7.88
2023-04-02T01:05:15.530Z,7.81
2023-04-02T01:07:55.075Z,7.69
2023-04-02T01:10:29.056Z,7.63
2023-04-02T01:13:23.545Z,7.60
2023-04-02T01:16:11.834Z,7.54
2023-04-02T01:18:50.421Z,7.46
2023-04-02T01:21:53.016Z,7.42
2023-04-02T01:24:26.532Z,7.38
2023-04-02T01:26:58.031Z,7.38
2023-04-02T01:29:36.073Z,7.33
2023-04-02T01:32:12.237Z,7.33
2023-04-02T01:34:44.749Z,7.29
2023-04-02T01:37:45.150Z,7.23
2023-04-02T01:40:25.532Z,7.18
2023-04-02T01:43:03.729Z,7.12
2023-04-02T01:45:32.368Z,7.08
2023-04-02T01:48:02.819Z,7.09
2023-04-02T01:50:37.456Z,7.05
2023-04-02T01:53:10.215Z,7.02
2023-04-02T01:55:52.555Z,6.97
2023-04-02T01:58:28.066Z,6.87
2023-04-02T02:01:06.013Z,6.86
2023-04-02T02:03:36.874Z,6.86
2023-04-02T02:06:06.632Z,6.84
2023-04-02T02:08:53.766Z,6.89
2023-04-02T02:11:26.767Z,6.90
2023-04-02T02:13:56.768Z,6.90
2023-04-02T02:16:27.516Z,6.89
2023-04-02T02:19:01.032Z,6.89
2023-04-02T02:21:39.405Z,6.87
2023-04-02T02:24:14.853Z,6.85
2023-04-02T02:26:44.591Z,6.86
2023-04-02T02:29:18.677Z,6.87
2023-04-02T02:31:48.557Z,6.85
2023-04-02T02:34:21.812Z,6.80
2023-04-02T02:36:55.243Z,6.76
2023-04-02T02:39:36.281Z,6.77
2023-04-02T02:42:32.387Z,6.76
2023-04-02T02:45:05.128Z,6.80
2023-04-02T02:47:37.158Z,6.81
2023-04-02T02:50:30.057Z,6.82
2023-04-02T02:53:00.568Z,6.80
2023-04-02T02:55:35.062Z,6.81
2023-04-02T02:58:32.104Z,6.82
2023-04-02T03:01:30.516Z,6.76
2023-04-02T03:04:01.165Z,6.67
2023-04-02T03:06:30.391Z,6.63
2023-04-02T03:09:05.133Z,6.57
2023-04-02T03:11:44.278Z,6.55
2023-04-02T03:14:33.655Z,6.55
2023-04-02T03:17:12.925Z,6.53
2023-04-02T03:19:52.887Z,6.57
2023-04-02T03:22:50.280Z,6.59
2023-04-02T03:25:43.724Z,6.62
2023-04-02T03:28:17.338Z,6.60
2023-04-02T03:30:56.749Z,6.59
2023-04-02T03:33:29.841Z,6.59
2023-04-02T03:36:13.443Z,6.57
2023-04-02T03:38:47.264Z,6.56
2023-04-02T03:41:24.887Z,6.55
2023-04-02T03:43:58.852Z,6.51
2023-04-02T03:46:50.504Z,6.50
2023-04-02T03:49:44.040Z,6.47
2023-04-02T03:52:18.114Z,6.49
2023-04-02T03:54:53.802Z,6.51
2023-04-02T03:57:41.266Z,6.53
2023-04-02T04:00:19.105Z,6.53
2023-04-02T04:02:57.624Z,6.53
2023-04-02T04:05:36.876Z,6.51
2023-04-02T04:08:16.805Z,6.52
2023-04-02T04:10:45.816Z,6.51
2023-04-02T04:13:17.990Z,6.51
2023-04-02T04:15:46.351Z,6.49
2023-04-02T04:18:35.132Z,6.50
2023-04-02T04:21:37.205Z,6.48
2023-04-02T04:24:22.509Z,6.38
2023-04-02T04:27:04.113Z,6.48
2023-04-02T04:29:53.765Z,6.47
2023-04-02T04:32:33.882Z,6.52
2023-04-02T04:35:21.827Z,6.57
2023-04-02T04:38:03.701Z,6.60
2023-04-02T04:40:36.494Z,6.63
2023-04-02T04:43:12.470Z,6.62
2023-04-02T04:45:44.752Z,6.63
2023-04-02T04:48:27.335Z,6.67
2023-04-02T04:51:08.219Z,6.75
2023-04-02T04:53:47.789Z,6.80
2023-04-02T04:56:25.720Z,6.92
2023-04-02T04:59:22.994Z,7.02
2023-04-02T05:01:56.256Z,7.11
2023-04-02T05:04:36.852Z,7.18
2023-04-02T05:07:19.448Z,7.28
2023-04-02T05:10:17.429Z,7.41
2023-04-02T05:12:49.801Z,7.51
2023-04-02T05:15:27.105Z,7.59
2023-04-02T05:18:18.193Z,7.67
2023-04-02T05:21:17.219Z,7.70
2023-04-02T05:23:51.557Z,7.76
2023-04-02T05:26:44.393Z,7.81
2023-04-02T05:29:20.656Z,7.85
2023-04-02T05:32:02.364Z,7.88
2023-04-02T05:34:37.200Z,7.90
2023-04-02T05:37:09.284Z,7.97
2023-04-02T05:39:37.775Z,8.08
2023-04-02T05:42:14.787Z,8.14
2023-04-02T05:45:08.386Z,8.30
2023-04-02T05:47:42.506Z,8.45
2023-04-02T05:50:25.391Z,8.52
2023-04-02T05:53:01.533Z,8.62
2023-04-02T05:55:41.105Z,8.71
2023-04-02T05:58:45.792Z,8.78
2023-04-02T06:01:25.495Z,8.91
2023-04-02T06:04:26.998Z,8.92
2023-04-02T06:07:19.582Z,9.02
2023-04-02T06:10:08.231Z,9.06
2023-04-02T06:12:44.855Z,9.26
2023-04-02T06:15:15.904Z,9.37
2023-04-02T06:17:52.928Z,9.54
2023-04-02T06:20:21.688Z,9.69
2023-04-02T06:22:59.608Z,9.80
2023-04-02T06:25:29.514Z,9.84
2023-04-02T06:28:01.944Z,9.98
2023-04-02T06:30:37.916Z,10.06
2023-04-02T06:33:06.776Z,10.24
2023-04-02T06:35:40.827Z,10.37
2023-04-02T06:38:25.560Z,10.48
2023-04-02T06:40:57.591Z,10.60
2023-04-02T06:44:07.357Z,10.75
2023-04-02T06:47:12.126Z,10.82
2023-04-02T06:49:48.271Z,10.91
2023-04-02T06:52:35.506Z,11.00
2023-04-02T06:55:50.599Z,10.98
2023-04-02T06:58:23.190Z,11.07
2023-04-02T07:00:52.906Z,11.11
2023-04-02T07:03:32.928Z,11.22
2023-04-02T07:06:16.119Z,11.35
2023-04-02T07:08:45.800Z,11.44
2023-04-02T07:11:18.700Z,11.55
2023-04-02T07:13:51.381Z,11.68
2023-04-02T07:16:22.934Z,11.76
2023-04-02T07:18:52.384Z,11.83
2023-04-02T07:21:20.837Z,11.86
2023-04-02T07:23:49.021Z,11.93
2023-04-02T07:26:22.442Z,11.95
2023-04-02T07:28:50.548Z,12.03
2023-04-02T07:31:27.208Z,12.03
2023-04-02T07:33:59.872Z,12.02
2023-04-02T07:36:30.369Z,12.00
2023-04-02T07:38:59.211Z,11.91
2023-04-02T07:41:27.713Z,11.84
2023-04-02T07:43:55.756Z,11.85
2023-04-02T07:46:24.798Z,11.87
2023-04-02T07:48:53.131Z,11.90
2023-04-02T07:51:26.852Z,11.91
2023-04-02T07:53:56.274Z,11.95
2023-04-02T07:56:25.885Z,11.99
2023-04-02T07:58:54.485Z,12.09
2023-04-02T08:01:25.913Z,12.22
2023-04-02T08:03:58.030Z,12.33
2023-04-02T08:06:26.239Z,12.42
2023-04-02T08:08:54.970Z,12.50
2023-04-02T08:11:23.257Z,12.59
2023-04-02T08:13:52.218Z,12.71
2023-04-02T08:16:20.501Z,12.80
2023-04-02T08:18:48.932Z,12.87
2023-04-02T08:21:17.117Z,12.86
2023-04-02T08:23:45.401Z,12.90
2023-04-02T08:26:18.941Z,12.91
2023-04-02T08:28:47.072Z,12.98
2023-04-02T08:31:15.454Z,13.03
2023-04-02T08:33:43.840Z,13.06
2023-04-02T08:36:17.947Z,13.09
2023-04-02T08:38:47.175Z,13.11
2023-04-02T08:41:27.975Z,13.07
2023-04-02T08:44:20.303Z,13.06
2023-04-02T08:47:04.285Z,13.14
2023-04-02T08:49:40.593Z,13.24
2023-04-02T08:52:27.180Z,13.27
2023-04-02T08:54:58.127Z,13.32
2023-04-02T08:57:32.132Z,13.28
2023-04-02T09:00:11.157Z,13.24
2023-04-02T09:02:49.885Z,13.23
2023-04-02T09:05:26.781Z,13.20
2023-04-02T09:07:58.413Z,13.13
2023-04-02T09:10:53.824Z,13.11
2023-04-02T09:13:29.289Z,13.09
2023-04-02T09:16:22.688Z,13.10
2023-04-02T09:18:54.061Z,13.12
2023-04-02T09:21:22.500Z,13.13
2023-04-02T09:23:50.688Z,13.17
2023-04-02T09:26:28.894Z,13.20
2023-04-02T09:29:02.388Z,13.16
2023-04-02T09:31:55.896Z,13.08
2023-04-02T09:34:36.553Z,13.05
2023-04-02T09:37:09.319Z,13.05
2023-04-02T09:39:37.444Z,12.98
2023-04-02T09:42:26.191Z,12.90
2023-04-02T09:45:22.416Z,12.74
2023-04-02T09:47:52.474Z,12.60
2023-04-02T09:50:33.633Z,12.55
2023-04-02T09:53:33.463Z,12.55
2023-04-02T09:56:24.384Z,12.55
2023-04-02T09:59:17.023Z,12.49
2023-04-02T10:02:01.507Z,12.50
2023-04-02T10:04:36.300Z,12.57
2023-04-02T10:07:06.582Z,12.55
2023-04-02T10:09:37.150Z,12.51
2023-04-02T10:12:10.978Z,12.47
2023-04-02T10:14:43.428Z,12.53
2023-04-02T10:17:19.108Z,12.50
2023-04-02T10:20:22.805Z,12.62
2023-04-02T10:22:51.384Z,12.70
2023-04-02T10:25:25.582Z,12.79
2023-04-02T10:28:03.596Z,12.93
2023-04-02T10:30:58.393Z,13.04
2023-04-02T10:33:35.954Z,13.16
2023-04-02T10:36:27.319Z,13.20
2023-04-02T10:39:08.677Z,13.23
2023-04-02T10:41:57.501Z,13.22
2023-04-02T10:44:52.225Z,13.17
2023-04-02T10:47:42.325Z,13.14
2023-04-02T10:50:42.382Z,13.19
2023-04-02T10:53:20.465Z,13.29
2023-04-02T10:55:55.274Z,13.38
2023-04-02T10:58:30.686Z,13.28
2023-04-02T11:01:04.747Z,13.27
2023-04-02T11:03:40.053Z,13.21
2023-04-02T11:06:31.534Z,13.14
2023-04-02T11:09:05.228Z,13.04
2023-04-02T11:11:38.976Z,12.83
2023-04-02T11:14:06.967Z,12.95
2023-04-02T11:16:38.744Z,12.81
2023-04-02T11:19:18.767Z,12.73
2023-04-02T11:22:00.100Z,12.62
2023-04-02T11:24:30.304Z,12.60
2023-04-02T11:27:07.464Z,12.60
2023-04-02T11:29:41.882Z,12.51
2023-04-02T11:32:30.932Z,12.48
2023-04-02T11:35:07.038Z,12.41
2023-04-02T11:37:37.527Z,12.39
2023-04-02T11:40:11.993Z,12.37
2023-04-02T11:42:42.730Z,12.32
2023-04-02T11:45:28.688Z,12.25
2023-04-02T11:47:59.781Z,12.18
2023-04-02T11:50:29.977Z,12.10
2023-04-02T11:53:04.894Z,12.05
2023-04-02T11:55:36.056Z,12.02
2023-04-02T11:58:04.213Z,12.09
2023-04-02T12:01:08.103Z,12.04
2023-04-02T12:04:00.810Z,12.03
2023-04-02T12:06:47.227Z,12.10
2023-04-02T12:09:31.023Z,12.22
2023-04-02T12:12:02.290Z,12.24
2023-04-02T12:14:36.423Z,12.27
2023-04-02T12:17:28.380Z,12.30
2023-04-02T12:20:09.827Z,12.25
2023-04-02T12:22:46.013Z,12.25
2023-04-02T12:25:27.190Z,12.30
2023-04-02T12:28:17.948Z,12.35
2023-04-02T12:30:48.052Z,12.35
2023-04-02T12:33:22.151Z,12.37
2023-04-02T12:35:55.060Z,12.32
2023-04-02T12:38:34.707Z,12.29
2023-04-02T12:41:30.540Z,12.31
2023-04-02T12:44:07.175Z,12.32
2023-04-02T12:46:36.447Z,12.34
2023-04-02T12:49:38.480Z,12.34
2023-04-02T12:52:11.883Z,12.59
2023-04-02T12:55:00.982Z,12.79
2023-04-02T12:57:29.292Z,12.94
2023-04-02T13:00:18.973Z,13.04
2023-04-02T13:02:50.426Z,13.13
2023-04-02T13:05:37.202Z,13.15
2023-04-02T13:08:06.146Z,13.15
2023-04-02T13:10:35.433Z,13.29
2023-04-02T13:13:04.412Z,13.32
2023-04-02T13:15:34.533Z,13.32
2023-04-02T13:18:23.045Z,13.37
2023-04-02T13:21:05.523Z,13.39
2023-04-02T13:23:36.568Z,13.41
2023-04-02T13:26:17.442Z,13.35
2023-04-02T13:28:56.671Z,13.19
2023-04-02T13:31:25.005Z,13.24
2023-04-02T13:33:53.279Z,13.25
2023-04-02T13:36:21.764Z,13.31
2023-04-02T13:38:50.118Z,13.30
2023-04-02T13:41:30.400Z,13.29
2023-04-02T13:44:01.558Z,13.22
2023-04-02T13:46:34.791Z,13.12
2023-04-02T13:49:02.989Z,13.17
2023-04-02T13:51:38.148Z,13.31
2023-04-02T13:54:14.013Z,13.36
2023-04-02T13:56:42.724Z,13.38
2023-04-02T13:59:11.364Z,13.44
2023-04-02T14:01:41.343Z,13.53
2023-04-02T14:04:11.307Z,13.56
2023-04-02T14:06:59.704Z,13.53
2023-04-02T14:09:39.037Z,13.59
2023-04-02T14:12:59.874Z,13.64
2023-04-02T14:15:38.429Z,13.66
2023-04-02T14:18:24.539Z,13.60
2023-04-02T14:21:19.791Z,13.68
2023-04-02T14:24:30.423Z,13.62
2023-04-02T14:27:08.774Z,13.62
2023-04-02T14:29:52.122Z,13.72
2023-04-02T14:32:31.476Z,13.78
2023-04-02T14:35:05.784Z,13.91
2023-04-02T14:37:49.632Z,14.02
2023-04-02T14:40:39.839Z,14.04
2023-04-02T14:43:33.100Z,13.89
2023-04-02T14:46:06.696Z,13.75
2023-04-02T14:48:42.360Z,13.69
2023-04-02T14:51:31.019Z,13.59
2023-04-02T14:53:59.322Z,13.53
2023-04-02T14:56:29.241Z,13.40
2023-04-02T14:59:42.354Z,13.40
2023-04-02T15:02:21.085Z,13.32
2023-04-02T15:05:06.487Z,13.21
2023-04-02T15:07:41.661Z,13.23
2023-04-02T15:10:53.513Z,13.13
2023-04-02T15:13:30.711Z,13.02
2023-04-02T15:16:10.950Z,12.91
2023-04-02T15:18:40.063Z,12.80
2023-04-02T15:21:31.911Z,12.73
2023-04-02T15:24:11.107Z,12.70
2023-04-02T15:26:41.984Z,12.66
2023-04-02T15:29:32.132Z,12.77
2023-04-02T15:32:19.031Z,12.86
2023-04-02T15:35:08.374Z,12.88
2023-04-02T15:37:55.748Z,12.92
2023-04-02T15:41:08.540Z,12.95
2023-04-02T15:43:46.227Z,12.87
2023-04-02T15:46:45.009Z,12.83
2023-04-02T15:49:51.624Z,12.70
2023-04-02T15:52:34.764Z,12.52
2023-04-02T15:55:21.030Z,12.22
2023-04-02T15:58:05.593Z,12.10
2023-04-02T16:00:45.059Z,11.90
2023-04-02T16:03:50.762Z,11.88
2023-04-02T16:06:32.511Z,11.85
2023-04-02T16:09:18.099Z,11.73
2023-04-02T16:11:46.582Z,11.75
2023-04-02T16:14:24.277Z,11.69
2023-04-02T16:16:59.076Z,11.63
2023-04-02T16:19:41.865Z,11.56
2023-04-02T16:22:25.445Z,11.53
2023-04-02T16:25:03.412Z,11.43
2023-04-02T16:27:40.438Z,11.30
2023-04-02T16:30:33.166Z,11.32
2023-04-02T16:33:23.048Z,11.33
2023-04-02T16:36:18.312Z,11.27
2023-04-02T16:39:12.605Z,11.17
2023-04-02T16:41:48.525Z,11.11
2023-04-02T16:44:38.497Z,11.07
2023-04-02T16:47:29.655Z,11.04
2023-04-02T16:50:08.595Z,11.02
2023-04-02T16:52:57.701Z,10.97
2023-04-02T16:56:10.153Z,10.88
2023-04-02T16:58:48.478Z,10.79
2023-04-02T17:01:42.888Z,10.70
2023-04-02T17:04:28.554Z,10.66
2023-04-02T17:07:15.896Z,10.55
2023-04-02T17:09:52.902Z,10.47
2023-04-02T17:12:28.643Z,10.38
2023-04-02T17:15:49.060Z,10.29
2023-04-02T17:18:24.877Z,10.18
2023-04-02T17:20:54.260Z,10.14
2023-04-02T17:23:24.882Z,10.10
2023-04-02T17:25:58.105Z,10.10
2023-04-02T17:28:36.839Z,10.08
2023-04-02T17:31:17.976Z,10.08
2023-04-02T17:33:46.129Z,10.06
2023-04-02T17:36:42.334Z,10.03
2023-04-02T17:39:28.582Z,10.02
2023-04-02T17:42:06.414Z,10.00
2023-04-02T17:45:03.494Z,9.96
2023-04-02T17:47:40.526Z,9.97
2023-04-02T17:50:17.870Z,9.95
2023-04-02T17:52:53.585Z,9.93
2023-04-02T17:55:40.620Z,9.93
2023-04-02T17:58:14.429Z,9.91
2023-04-02T18:01:05.112Z,9.92
2023-04-02T18:03:36.325Z,9.90
2023-04-02T18:06:14.458Z,9.81
2023-04-02T18:09:04.365Z,9.62
2023-04-02T18:12:10.686Z,9.63
2023-04-02T18:15:03.649Z,9.52
2023-04-02T18:17:32.256Z,9.53
2023-04-02T18:20:09.342Z,9.56
2023-04-02T18:22:56.594Z,9.52
2023-04-02T18:25:39.613Z,9.47
2023-04-02T18:28:14.965Z,9.50
2023-04-02T18:30:54.925Z,9.44
2023-04-02T18:33:35.388Z,9.41
2023-04-02T18:36:21.890Z,9.42
2023-04-02T18:39:02.957Z,9.42
2023-04-02T18:41:45.007Z,9.30
2023-04-02T18:44:49.410Z,9.27
2023-04-02T18:47:29.522Z,9.24
2023-04-02T18:50:37.743Z,9.22
2023-04-02T18:53:18.396Z,9.14
2023-04-02T18:56:04.255Z,9.14
2023-04-02T18:58:46.567Z,9.22
2023-04-02T19:01:20.032Z,9.13
2023-04-02T19:03:54.980Z,9.14
2023-04-02T19:06:37.435Z,9.15
2023-04-02T19:09:24.761Z,9.13
2023-04-02T19:11:56.138Z,9.14
2023-04-02T19:14:24.397Z,9.13
2023-04-02T19:17:09.911Z,9.12
2023-04-02T19:20:13.030Z,9.13
2023-04-02T19:22:49.953Z,9.09
2023-04-02T19:25:44.494Z,9.08
2023-04-02T19:28:21.783Z,9.07
2023-04-02T19:31:09.353Z,9.04
2023-04-02T19:33:49.884Z,9.08
2023-04-02T19:36:32.921Z,9.00
2023-04-02T19:39:14.423Z,9.00
2023-04-02T19:41:45.489Z,8.94
2023-04-02T19:44:15.085Z,8.88
2023-04-02T19:46:44.905Z,8.76
2023-04-02T19:49:16.948Z,8.72
2023-04-02T19:51:44.986Z,8.76
2023-04-02T19:54:13.121Z,8.76
2023-04-02T19:56:42.534Z,8.71
2023-04-02T19:59:17.926Z,8.71
2023-04-02T20:01:47.493Z,8.77
2023-04-02T20:04:15.953Z,8.74
2023-04-02T20:06:44.272Z,8.75
2023-04-02T20:09:12.455Z,8.78
2023-04-02T20:11:40.521Z,8.79
2023-04-02T20:14:08.595Z,8.76
2023-04-02T20:16:38.863Z,8.73
2023-04-02T20:19:07.027Z,8.72
2023-04-02T20:21:38.551Z,8.75
2023-04-02T20:24:08.047Z,8.76
2023-04-02T20:26:36.715Z,8.76
2023-04-02T20:29:05.013Z,8.77
2023-04-02T20:31:33.272Z,8.74
2023-04-02T20:34:02.960Z,8.71
2023-04-02T20:36:31.798Z,8.69
2023-04-02T20:38:59.862Z,8.65
2023-04-02T20:41:28.148Z,8.60
2023-04-02T20:43:56.753Z,8.56
2023-04-02T20:46:25.661Z,8.53
2023-04-02T20:48:53.717Z,8.53
2023-04-02T20:51:22.049Z,8.50
2023-04-02T20:53:50.161Z,8.45
2023-04-02T20:56:20.356Z,8.43
2023-04-02T20:58:48.456Z,8.39
2023-04-02T21:01:27.041Z,8.30
2023-04-02T21:03:57.517Z,8.28
2023-04-02T21:06:28.032Z,8.21
2023-04-02T21:08:56.399Z,8.17
2023-04-02T21:11:26.321Z,8.14
2023-04-02T21:13:54.704Z,8.09
2023-04-02T21:16:25.300Z,8.05
2023-04-02T21:18:55.107Z,8.02
2023-04-02T21:21:23.456Z,7.98
2023-04-02T21:23:59.968Z,7.95
2023-04-02T21:26:31.891Z,7.90
2023-04-02T21:29:02.015Z,7.84
2023-04-02T21:31:34.393Z,7.83
2023-04-02T21:34:03.383Z,7.81
2023-04-02T21:36:33.009Z,7.81
2023-04-02T21:39:04.248Z,7.80
2023-04-02T21:41:37.770Z,7.80
2023-04-02T21:44:08.588Z,7.81
2023-04-02T21:46:39.142Z,7.77
2023-04-02T21:49:08.529Z,7.79
2023-04-02T21:51:38.877Z,7.76
2023-04-02T21:54:08.270Z,7.73
2023-04-02T21:56:39.405Z,7.68
2023-04-02T21:59:10.152Z,7.59
2023-04-02T22:01:44.883Z,7.50
2023-04-02T22:04:19.090Z,7.41
2023-04-02T22:06:48.238Z,7.33
2023-04-02T22:09:19.718Z,7.25
2023-04-02T22:11:51.618Z,7.15
2023-04-02T22:14:20.593Z,7.05
2023-04-02T22:16:48.851Z,6.97
2023-04-02T22:19:17.773Z,6.90
2023-04-02T22:21:46.572Z,6.82
2023-04-02T22:24:16.299Z,6.77
2023-04-02T22:26:45.611Z,6.71
2023-04-02T22:29:14.324Z,6.65
2023-04-02T22:31:42.635Z,6.61
2023-04-02T22:34:11.081Z,6.54
2023-04-02T22:36:39.084Z,6.50
2023-04-02T22:39:10.557Z,6.51
2023-04-02T22:41:39.341Z,6.49
2023-04-02T22:44:07.405Z,6.46
2023-04-02T22:46:35.791Z,6.40
2023-04-02T22:49:04.707Z,6.34
2023-04-02T22:51:32.742Z,6.25
2023-04-02T22:54:00.962Z,6.21
2023-04-02T22:56:32.398Z,6.21
2023-04-02T22:59:00.915Z,6.20
2023-04-02T23:01:31.594Z,6.16
2023-04-02T23:03:59.805Z,6.07
2023-04-02T23:06:29.004Z,6.03
2023-04-02T23:08:57.328Z,5.96
2023-04-02T23:11:27.799Z,5.92
2023-04-02T23:13:58.071Z,5.83
2023-04-02T23:16:28.659Z,5.69
2023-04-02T23:18:57.746Z,5.68
2023-04-02T23:21:26.418Z,5.61
2023-04-02T23:23:55.557Z,5.47
2023-04-02T23:26:29.422Z,5.35
2023-04-02T23:28:59.975Z,5.21
2023-04-02T23:31:28.553Z,5.13
2023-04-02T23:33:56.958Z,5.08
2023-04-02T23:36:32.052Z,5.02
2023-04-02T23:39:04.215Z,4.97
2023-04-02T23:41:32.455Z,4.95
2023-04-02T23:44:01.364Z,4.87
2023-04-02T23:46:29.856Z,4.85
2023-04-02T23:48:59.090Z,4.79
2023-04-02T23:51:28.456Z,4.79
2023-04-02T23:53:56.807Z,4.78
2023-04-02T23:56:25.998Z,4.71
2023-04-02T23:58:54.276Z,4.62
